Time;durP1;ratioP1;P1;durP2;ratioP2;P2;SDS_P1;SDS_P2;PMS_P1;PMS_P2;Temp;Humidity;BMP_temperature;BMP_pressure;BME280_temperature;BME280_humidity;BME280_pressure;Samples;Min_cycle;Max_cycle;Signal;HPM_P1;HPM_P2
2024/01/03 00:00:58;;;;;;;0.37;0.37;;;;;;;;;;4970465;28;20298;-63
2024/01/03 00:03:27;;;;;;;0.47;0.47;;;;;;;;;;4970119;28;20277;-64
2024/01/03 00:05:54;;;;;;;1.47;0.30;;;;;;;;;;4970120;28;20298;-64
2024/01/03 00:08:24;;;;;;;0.30;0.30;;;;;;;;;;4970487;28;20210;-65
2024/01/03 00:10:51;;;;;;;0.80;0.73;;;;;;;;;;4970387;28;20645;-64
2024/01/03 00:13:45;;;;;;;0.77;0.40;;;;;;;;;;4969287;28;20206;-64
2024/01/03 00:16:19;;;;;;;0.40;0.40;;;;;;;;;;4969611;28;20611;-64
2024/01/03 00:18:49;;;;;;;0.70;0.30;;;;;;;;;;4969585;28;20729;-64
2024/01/03 00:21:18;;;;;;;0.83;0.50;;;;;;;;;;4970219;28;20321;-63
2024/01/03 00:23:50;;;;;;;0.20;0.20;;;;;;;;;;4969909;28;20238;-64
2024/01/03 00:26:17;;;;;;;0.23;0.23;;;;;;;;;;4970009;28;20206;-64
2024/01/03 00:28:46;;;;;;;1.03;0.40;;;;;;;;;;4969909;28;20218;-64
2024/01/03 00:31:18;;;;;;;0.63;0.30;;;;;;;;;;4969574;28;20206;-64
2024/01/03 00:33:45;;;;;;;1.23;0.50;;;;;;;;;;4969929;28;20214;-63
2024/01/03 00:36:13;;;;;;;0.63;0.40;;;;;;;;;;4958052;28;20214;-64
2024/01/03 00:38:42;;;;;;;1.10;0.30;;;;;;;;;;4969887;28;20213;-63
2024/01/03 00:41:09;;;;;;;0.23;0.23;;;;;;;;;;4969770;28;20244;-64
2024/01/03 00:43:36;;;;;;;0.97;0.50;;;;;;;;;;4950392;29;20408;-63
2024/01/03 00:46:05;;;;;;;0.67;0.30;;;;;;;;;;4968564;28;20202;-64
2024/01/03 00:48:32;;;;;;;0.63;0.27;;;;;;;;;;4969921;28;20242;-65
2024/01/03 00:51:00;;;;;;;1.23;0.40;;;;;;;;;;4969048;28;20209;-64
2024/01/03 00:53:27;;;;;;;0.57;0.20;;;;;;;;;;4969551;28;20717;-64
2024/01/03 00:55:54;;;;;;;1.00;0.30;;;;;;;;;;4968871;28;20280;-64
2024/01/03 00:58:21;;;;;;;1.47;0.50;;;;;;;;;;4968731;28;20418;-65
2024/01/03 01:00:48;;;;;;;0.20;0.20;;;;;;;;;;4969120;28;20264;-65
2024/01/03 01:03:18;;;;;;;0.50;0.30;;;;;;;;;;4968936;28;20214;-65
2024/01/03 01:05:45;;;;;;;2.00;0.33;;;;;;;;;;4968128;28;20241;-65
2024/01/03 01:08:13;;;;;;;1.60;0.33;;;;;;;;;;4968788;28;20278;-64
2024/01/03 01:10:40;;;;;;;2.07;0.53;;;;;;;;;;4957512;28;20218;-64
2024/01/03 01:13:07;;;;;;;1.37;0.37;;;;;;;;;;4968892;28;20222;-65
2024/01/03 01:15:34;;;;;;;2.77;0.43;;;;;;;;;;4968898;28;20645;-64
2024/01/03 01:18:01;;;;;;;1.00;0.43;;;;;;;;;;4968803;28;20424;-65
2024/01/03 01:20:29;;;;;;;0.57;0.30;;;;;;;;;;4968590;28;20209;-65
2024/01/03 01:22:56;;;;;;;0.47;0.30;;;;;;;;;;4968826;28;20222;-66
2024/01/03 01:25:23;;;;;;;2.73;0.90;;;;;;;;;;4970539;28;20292;-66
2024/01/03 01:27:50;;;;;;;3.43;0.40;;;;;;;;;;4968402;28;20218;-64
2024/01/03 01:30:17;;;;;;;1.10;0.33;;;;;;;;;;4968664;28;20210;-65
2024/01/03 01:32:45;;;;;;;2.00;0.27;;;;;;;;;;4968902;28;20210;-65
2024/01/03 01:35:12;;;;;;;0.83;0.20;;;;;;;;;;4968699;28;20202;-64
2024/01/03 01:37:40;;;;;;;0.47;0.30;;;;;;;;;;4968312;28;20210;-65
2024/01/03 01:40:08;;;;;;;0.10;0.10;;;;;;;;;;4968094;28;20234;-65
2024/01/03 01:42:35;;;;;;;0.67;0.37;;;;;;;;;;4968497;28;20217;-65
2024/01/03 01:45:02;;;;;;;1.43;0.20;;;;;;;;;;4967647;28;20238;-64
2024/01/03 01:47:30;;;;;;;0.33;0.30;;;;;;;;;;4967793;28;20693;-65
2024/01/03 01:49:57;;;;;;;0.50;0.23;;;;;;;;;;4967614;28;20580;-64
2024/01/03 01:52:24;;;;;;;3.23;0.37;;;;;;;;;;4968175;28;20293;-65
2024/01/03 01:55:06;;;;;;;0.33;0.17;;;;;;;;;;4968015;28;20269;-65
2024/01/03 01:57:33;;;;;;;0.17;0.17;;;;;;;;;;4967628;28;20218;-64
2024/01/03 02:00:02;;;;;;;0.80;0.30;;;;;;;;;;4968030;28;20213;-65
2024/01/03 02:02:29;;;;;;;0.10;0.10;;;;;;;;;;4968363;28;20619;-65
2024/01/03 02:04:56;;;;;;;0.20;0.13;;;;;;;;;;4967638;28;20709;-65
2024/01/03 02:07:24;;;;;;;0.97;0.20;;;;;;;;;;4968010;28;20625;-64
2024/01/03 02:09:52;;;;;;;0.17;0.17;;;;;;;;;;4968068;28;20202;-64
2024/01/03 02:12:26;;;;;;;2.13;0.37;;;;;;;;;;4968120;28;20214;-64
2024/01/03 02:14:53;;;;;;;0.87;0.20;;;;;;;;;;4968124;28;20288;-64
2024/01/03 02:17:20;;;;;;;0.30;0.20;;;;;;;;;;4968156;28;20210;-65
2024/01/03 02:19:47;;;;;;;0.27;0.27;;;;;;;;;;4967952;28;20210;-64
2024/01/03 02:22:15;;;;;;;1.43;0.23;;;;;;;;;;4967396;28;20378;-64
2024/01/03 02:24:42;;;;;;;3.03;0.40;;;;;;;;;;4967788;28;20810;-64
2024/01/03 02:27:09;;;;;;;0.83;0.37;;;;;;;;;;4967979;28;20238;-64
2024/01/03 02:29:36;;;;;;;0.67;0.50;;;;;;;;;;4967708;28;20202;-65
2024/01/03 02:32:03;;;;;;;2.00;0.40;;;;;;;;;;4967720;28;20211;-64
2024/01/03 02:34:31;;;;;;;1.30;0.43;;;;;;;;;;4967742;28;20365;-64
2024/01/03 02:36:58;;;;;;;0.77;0.40;;;;;;;;;;4967260;28;20210;-64
2024/01/03 02:39:26;;;;;;;4.73;0.60;;;;;;;;;;4968038;28;20217;-64
2024/01/03 02:41:53;;;;;;;5.03;0.57;;;;;;;;;;4964357;28;20669;-65
2024/01/03 02:44:23;;;;;;;0.50;0.40;;;;;;;;;;4967279;28;20237;-64
2024/01/03 02:46:50;;;;;;;2.00;0.40;;;;;;;;;;4967590;28;20202;-64
2024/01/03 02:49:17;;;;;;;1.90;0.43;;;;;;;;;;4967869;28;20265;-64
2024/01/03 02:51:44;;;;;;;1.77;0.80;;;;;;;;;;4967624;28;20688;-64
2024/01/03 02:54:11;;;;;;;4.90;0.70;;;;;;;;;;4967508;28;20301;-64
2024/01/03 02:56:42;;;;;;;0.70;0.50;;;;;;;;;;4967723;28;20203;-64
2024/01/03 02:59:09;;;;;;;2.67;0.70;;;;;;;;;;4969819;28;20634;-64
2024/01/03 03:01:36;;;;;;;2.43;0.53;;;;;;;;;;4971790;28;20227;-65
2024/01/03 03:04:04;;;;;;;6.13;0.93;;;;;;;;;;4970865;28;20218;-65
2024/01/03 03:06:31;;;;;;;2.67;0.70;;;;;;;;;;4971126;28;20206;-64
2024/01/03 03:08:58;;;;;;;3.53;0.67;;;;;;;;;;4971146;28;20210;-64
2024/01/03 03:11:25;;;;;;;4.77;0.70;;;;;;;;;;4970689;28;20218;-65
2024/01/03 03:13:53;;;;;;;2.97;0.40;;;;;;;;;;4960470;28;20581;-65
2024/01/03 03:16:20;;;;;;;3.80;0.60;;;;;;;;;;4970853;28;20206;-65
2024/01/03 03:18:47;;;;;;;1.53;0.50;;;;;;;;;;4971079;28;20234;-65
2024/01/03 03:21:14;;;;;;;2.60;0.60;;;;;;;;;;4971192;28;20234;-65
2024/01/03 03:23:41;;;;;;;1.90;0.83;;;;;;;;;;4970035;28;20284;-65
2024/01/03 03:26:08;;;;;;;3.17;0.70;;;;;;;;;;4970801;28;20285;-64
2024/01/03 03:28:35;;;;;;;2.67;0.77;;;;;;;;;;4959940;28;20592;-64
2024/01/03 03:31:04;;;;;;;2.63;0.60;;;;;;;;;;4970842;28;20218;-64
2024/01/03 03:33:33;;;;;;;1.80;0.43;;;;;;;;;;4970830;28;20305;-64
2024/01/03 03:36:00;;;;;;;0.20;0.20;;;;;;;;;;4970377;28;20293;-64
2024/01/03 03:38:27;;;;;;;0.97;0.40;;;;;;;;;;4970170;28;20210;-64
2024/01/03 03:40:54;;;;;;;2.37;0.60;;;;;;;;;;4970253;28;21358;-63
2024/01/03 03:43:21;;;;;;;0.23;0.17;;;;;;;;;;4970108;28;20261;-64
2024/01/03 03:45:48;;;;;;;1.43;0.67;;;;;;;;;;4970007;28;20246;-64
2024/01/03 03:48:16;;;;;;;2.47;0.23;;;;;;;;;;4970345;28;20677;-64
2024/01/03 03:50:43;;;;;;;1.47;0.30;;;;;;;;;;4969943;28;20245;-64
2024/01/03 03:53:10;;;;;;;2.57;0.43;;;;;;;;;;4970656;28;20940;-66
2024/01/03 03:55:41;;;;;;;1.07;0.30;;;;;;;;;;4969939;28;20198;-64
2024/01/03 03:58:08;;;;;;;1.17;0.40;;;;;;;;;;4969798;28;20229;-64
2024/01/03 04:00:35;;;;;;;1.40;0.40;;;;;;;;;;4970478;28;20206;-65
2024/01/03 04:03:06;;;;;;;0.30;0.30;;;;;;;;;;4970128;28;20217;-65
2024/01/03 04:05:34;;;;;;;1.17;0.30;;;;;;;;;;4969616;28;20604;-64
2024/01/03 04:08:01;;;;;;;2.03;0.50;;;;;;;;;;4969266;28;20214;-65
2024/01/03 04:10:28;;;;;;;2.30;0.47;;;;;;;;;;4969836;28;20213;-65
2024/01/03 04:12:56;;;;;;;3.10;0.50;;;;;;;;;;4966232;28;20214;-65
2024/01/03 04:15:23;;;;;;;2.30;0.63;;;;;;;;;;4969384;28;20210;-65
2024/01/03 04:17:50;;;;;;;2.93;0.30;;;;;;;;;;4969740;28;20203;-65
2024/01/03 04:20:17;;;;;;;5.60;0.77;;;;;;;;;;4970078;28;20207;-65
2024/01/03 04:22:46;;;;;;;3.43;0.60;;;;;;;;;;4969811;28;20288;-65
2024/01/03 04:25:13;;;;;;;1.83;0.87;;;;;;;;;;4969951;28;20242;-65
2024/01/03 04:27:40;;;;;;;2.53;0.90;;;;;;;;;;4969633;28;20214;-65
2024/01/03 04:30:08;;;;;;;1.27;0.60;;;;;;;;;;4969732;28;20211;-66
2024/01/03 04:32:35;;;;;;;2.77;0.70;;;;;;;;;;4969392;28;20261;-65
2024/01/03 04:35:02;;;;;;;7.27;1.23;;;;;;;;;;4958534;28;20202;-64
2024/01/03 04:37:30;;;;;;;2.33;1.03;;;;;;;;;;4969406;28;20206;-65
2024/01/03 04:39:58;;;;;;;4.93;0.90;;;;;;;;;;4969851;28;20214;-65
2024/01/03 04:42:25;;;;;;;3.53;1.10;;;;;;;;;;4969334;28;20211;-65
2024/01/03 04:44:53;;;;;;;6.03;1.07;;;;;;;;;;4968991;28;20206;-66
2024/01/03 04:47:20;;;;;;;3.47;0.87;;;;;;;;;;4969951;28;20301;-66
2024/01/03 04:49:47;;;;;;;5.57;0.87;;;;;;;;;;4969183;28;20691;-65
2024/01/03 04:52:14;;;;;;;3.07;0.73;;;;;;;;;;4969173;28;20218;-64
2024/01/03 04:54:41;;;;;;;4.03;0.90;;;;;;;;;;4969426;28;20209;-65
2024/01/03 04:57:10;;;;;;;7.13;0.67;;;;;;;;;;4969263;28;20206;-65
2024/01/03 04:59:37;;;;;;;2.70;0.40;;;;;;;;;;4968819;28;20211;-65
2024/01/03 05:02:04;;;;;;;6.43;0.90;;;;;;;;;;4968771;28;20210;-65
2024/01/03 05:04:31;;;;;;;4.20;1.00;;;;;;;;;;4968856;28;20211;-65
2024/01/03 05:06:58;;;;;;;3.90;1.30;;;;;;;;;;4968462;28;20234;-65
2024/01/03 05:09:25;;;;;;;3.77;0.90;;;;;;;;;;4969040;28;20202;-64
2024/01/03 05:11:52;;;;;;;4.17;0.70;;;;;;;;;;4968848;28;20202;-64
2024/01/03 05:14:21;;;;;;;1.93;0.90;;;;;;;;;;4968575;28;20214;-64
2024/01/03 05:16:48;;;;;;;4.87;0.80;;;;;;;;;;4968717;28;20214;-65
2024/01/03 05:19:15;;;;;;;5.27;1.17;;;;;;;;;;4968790;28;20218;-65
2024/01/03 05:21:42;;;;;;;5.43;0.90;;;;;;;;;;4967545;28;20227;-64
2024/01/03 05:24:09;;;;;;;6.13;1.13;;;;;;;;;;4954896;28;20245;-65
2024/01/03 05:26:36;;;;;;;3.60;1.00;;;;;;;;;;4968560;28;20227;-65
2024/01/03 05:29:03;;;;;;;2.83;1.07;;;;;;;;;;4968507;28;20218;-65
2024/01/03 05:31:31;;;;;;;1.77;1.03;;;;;;;;;;4968404;28;20210;-65
2024/01/03 05:33:58;;;;;;;4.37;1.10;;;;;;;;;;4968447;28;20202;-65
2024/01/03 05:36:25;;;;;;;1.53;1.13;;;;;;;;;;4968580;28;20716;-65
2024/01/03 05:38:52;;;;;;;1.90;1.10;;;;;;;;;;4968648;28;20815;-65
2024/01/03 05:41:20;;;;;;;2.87;1.23;;;;;;;;;;4968066;28;20669;-65
2024/01/03 05:43:47;;;;;;;3.87;0.70;;;;;;;;;;4967997;28;20206;-65
2024/01/03 05:46:14;;;;;;;6.10;0.83;;;;;;;;;;4968026;28;20230;-65
2024/01/03 05:48:42;;;;;;;3.13;0.80;;;;;;;;;;4968893;28;20217;-65
2024/01/03 05:51:10;;;;;;;5.00;1.00;;;;;;;;;;4968597;28;20222;-65
2024/01/03 05:53:37;;;;;;;1.70;0.77;;;;;;;;;;4967180;28;20665;-65
2024/01/03 05:56:05;;;;;;;4.77;1.00;;;;;;;;;;4968495;28;20206;-65
2024/01/03 05:58:32;;;;;;;3.10;0.83;;;;;;;;;;4968560;28;20217;-65
2024/01/03 06:00:59;;;;;;;8.57;1.47;;;;;;;;;;4968355;28;20681;-65
2024/01/03 06:03:26;;;;;;;6.03;0.57;;;;;;;;;;4967922;28;20238;-65
2024/01/03 06:05:55;;;;;;;3.13;1.10;;;;;;;;;;4968015;28;20247;-65
2024/01/03 06:08:22;;;;;;;6.63;1.10;;;;;;;;;;4968087;28;20982;-65
2024/01/03 06:10:49;;;;;;;2.80;0.73;;;;;;;;;;4967972;28;20206;-65
2024/01/03 06:13:16;;;;;;;7.97;1.00;;;;;;;;;;4967614;28;20214;-65
2024/01/03 06:15:43;;;;;;;6.47;1.07;;;;;;;;;;4967028;28;20724;-64
2024/01/03 06:18:10;;;;;;;7.07;1.40;;;;;;;;;;4967429;28;20210;-65
2024/01/03 06:20:37;;;;;;;4.23;1.13;;;;;;;;;;4967904;28;20213;-64
2024/01/03 06:23:06;;;;;;;4.23;1.20;;;;;;;;;;4967609;28;20206;-65
2024/01/03 06:25:33;;;;;;;4.27;1.00;;;;;;;;;;4967697;28;20233;-65
2024/01/03 06:28:00;;;;;;;4.23;0.87;;;;;;;;;;4968228;28;20214;-64
2024/01/03 06:30:28;;;;;;;8.90;1.10;;;;;;;;;;4967851;28;20214;-64
2024/01/03 06:32:55;;;;;;;2.53;0.60;;;;;;;;;;4969926;28;20238;-65
2024/01/03 06:35:22;;;;;;;2.87;0.93;;;;;;;;;;4971210;28;20206;-65
2024/01/03 06:37:49;;;;;;;4.83;0.60;;;;;;;;;;4955247;28;20243;-65
2024/01/03 06:40:17;;;;;;;4.17;0.70;;;;;;;;;;4971654;28;20290;-65
2024/01/03 06:42:44;;;;;;;3.97;0.70;;;;;;;;;;4971905;28;20218;-65
2024/01/03 06:45:11;;;;;;;5.13;1.27;;;;;;;;;;4971529;28;20288;-65
2024/01/03 06:47:38;;;;;;;10.07;1.00;;;;;;;;;;4971456;28;20233;-64
2024/01/03 06:50:05;;;;;;;5.40;0.87;;;;;;;;;;4971973;28;20222;-64
2024/01/03 06:52:32;;;;;;;5.80;0.90;;;;;;;;;;4971912;28;20210;-65
2024/01/03 06:54:59;;;;;;;6.53;1.17;;;;;;;;;;4971290;28;20305;-64
2024/01/03 06:57:28;;;;;;;3.50;1.13;;;;;;;;;;4970574;28;20214;-65
2024/01/03 06:59:55;;;;;;;3.90;1.00;;;;;;;;;;4971661;28;20626;-64
2024/01/03 07:02:22;;;;;;;4.20;1.10;;;;;;;;;;4971188;28;20206;-67
2024/01/03 07:04:49;;;;;;;8.23;1.13;;;;;;;;;;4971431;28;20221;-65
2024/01/03 07:07:17;;;;;;;6.70;1.00;;;;;;;;;;4970731;28;20229;-65
2024/01/03 07:09:44;;;;;;;3.57;0.80;;;;;;;;;;4971025;28;20612;-65
2024/01/03 07:12:11;;;;;;;2.97;0.97;;;;;;;;;;4971126;28;20207;-65
2024/01/03 07:14:39;;;;;;;4.27;1.10;;;;;;;;;;4971033;28;20241;-65
2024/01/03 07:17:06;;;;;;;5.20;1.10;;;;;;;;;;4970627;28;20202;-64
2024/01/03 07:19:33;;;;;;;3.83;1.40;;;;;;;;;;4970314;28;20297;-65
2024/01/03 07:22:00;;;;;;;2.00;0.87;;;;;;;;;;4971141;28;20230;-65
2024/01/03 07:24:27;;;;;;;7.97;1.63;;;;;;;;;;4970914;28;20243;-64
2024/01/03 07:26:55;;;;;;;3.33;0.93;;;;;;;;;;4970351;28;20777;-66
2024/01/03 07:29:22;;;;;;;3.90;1.20;;;;;;;;;;4971049;28;20669;-65
2024/01/03 07:31:50;;;;;;;4.30;1.50;;;;;;;;;;4970963;28;20221;-65
2024/01/03 07:34:17;;;;;;;6.80;1.23;;;;;;;;;;4969015;28;20214;-65
2024/01/03 07:36:44;;;;;;;4.53;0.97;;;;;;;;;;4970228;28;20210;-65
2024/01/03 07:39:11;;;;;;;5.33;1.07;;;;;;;;;;4970699;28;20632;-64
2024/01/03 07:41:38;;;;;;;4.47;0.97;;;;;;;;;;4972472;28;20214;-65
2024/01/03 07:44:05;;;;;;;5.13;1.33;;;;;;;;;;4969745;28;20211;-65
2024/01/03 07:46:32;;;;;;;3.40;0.80;;;;;;;;;;4971118;28;20230;-64
2024/01/03 07:49:01;;;;;;;1.30;0.67;;;;;;;;;;4970867;28;20292;-64
2024/01/03 07:51:28;;;;;;;3.30;0.87;;;;;;;;;;4970888;28;20210;-65
2024/01/03 07:53:55;;;;;;;4.97;0.70;;;;;;;;;;4970568;28;20294;-64
2024/01/03 07:56:22;;;;;;;3.47;1.40;;;;;;;;;;4977831;28;20693;-65
2024/01/03 07:58:49;;;;;;;2.47;0.60;;;;;;;;;;4970753;28;20245;-65
2024/01/03 08:01:16;;;;;;;3.73;0.80;;;;;;;;;;4970613;28;20210;-65
2024/01/03 08:03:43;;;;;;;2.23;0.40;;;;;;;;;;4970741;28;20574;-65
2024/01/03 08:06:13;;;;;;;1.83;0.50;;;;;;;;;;4969848;28;20237;-66
2024/01/03 08:08:40;;;;;;;1.37;0.73;;;;;;;;;;4970593;28;20681;-65
2024/01/03 08:11:07;;;;;;;1.53;0.50;;;;;;;;;;4970311;28;20265;-66
2024/01/03 08:13:34;;;;;;;3.17;0.40;;;;;;;;;;4959483;28;20221;-65
2024/01/03 08:16:01;;;;;;;2.43;0.67;;;;;;;;;;4970515;28;20836;-66
2024/01/03 08:18:28;;;;;;;1.17;0.67;;;;;;;;;;4969975;28;20704;-66
2024/01/03 08:20:55;;;;;;;1.37;0.40;;;;;;;;;;4970416;28;20231;-66
2024/01/03 08:23:23;;;;;;;0.83;0.50;;;;;;;;;;4969889;28;20209;-65
2024/01/03 08:25:50;;;;;;;1.67;0.60;;;;;;;;;;4969653;28;20206;-66
2024/01/03 08:28:17;;;;;;;1.40;0.50;;;;;;;;;;4970318;28;20263;-66
2024/01/03 08:30:44;;;;;;;0.93;0.50;;;;;;;;;;4969542;28;20962;-66
2024/01/03 08:33:11;;;;;;;2.13;0.40;;;;;;;;;;4970049;28;20207;-66
2024/01/03 08:35:38;;;;;;;0.87;0.40;;;;;;;;;;4968610;28;20243;-67
2024/01/03 08:38:05;;;;;;;3.03;0.57;;;;;;;;;;4968922;28;20199;-66
2024/01/03 08:40:34;;;;;;;2.43;0.40;;;;;;;;;;4967919;28;20202;-66
2024/01/03 08:43:01;;;;;;;0.90;0.27;;;;;;;;;;4968889;28;20220;-66
2024/01/03 08:45:28;;;;;;;1.20;0.40;;;;;;;;;;4969341;28;20214;-66
2024/01/03 08:47:55;;;;;;;1.90;0.43;;;;;;;;;;4969780;28;20667;-66
2024/01/03 08:50:22;;;;;;;1.93;0.40;;;;;;;;;;4968037;28;20207;-65
2024/01/03 08:52:49;;;;;;;2.47;0.40;;;;;;;;;;4967864;28;21021;-64
2024/01/03 08:55:16;;;;;;;5.87;0.50;;;;;;;;;;4968790;28;20207;-71
2024/01/03 08:57:44;;;;;;;1.80;0.50;;;;;;;;;;4969111;28;20203;-63
2024/01/03 09:00:12;;;;;;;0.83;0.30;;;;;;;;;;4969772;28;20210;-65
2024/01/03 09:02:39;;;;;;;2.47;0.57;;;;;;;;;;4964791;28;20218;-64
2024/01/03 09:05:06;;;;;;;0.90;0.30;;;;;;;;;;4967374;28;20269;-64
2024/01/03 09:07:33;;;;;;;1.33;0.30;;;;;;;;;;4969366;28;20226;-65
2024/01/03 09:10:00;;;;;;;1.33;0.30;;;;;;;;;;4951119;28;20211;-64
2024/01/03 09:12:27;;;;;;;1.37;0.47;;;;;;;;;;4969048;28;20677;-64
2024/01/03 09:14:54;;;;;;;3.70;0.80;;;;;;;;;;4969488;28;20634;-64
2024/01/03 09:17:21;;;;;;;0.60;0.30;;;;;;;;;;4969389;28;20210;-65
2024/01/03 09:19:48;;;;;;;0.57;0.40;;;;;;;;;;4969233;28;20456;-64
2024/01/03 09:22:17;;;;;;;1.77;0.70;;;;;;;;;;4969124;28;20273;-65
2024/01/03 09:24:44;;;;;;;0.67;0.40;;;;;;;;;;4969073;28;20341;-65
2024/01/03 09:27:11;;;;;;;1.43;0.43;;;;;;;;;;4968648;28;20222;-64
2024/01/03 09:29:38;;;;;;;0.20;0.20;;;;;;;;;;4968876;28;20202;-65
2024/01/03 09:32:07;;;;;;;1.57;0.70;;;;;;;;;;4969319;28;20219;-65
2024/01/03 09:34:39;;;;;;;0.77;0.30;;;;;;;;;;4969069;28;20217;-65
2024/01/03 09:37:06;;;;;;;1.00;0.50;;;;;;;;;;4968784;28;20194;-65
2024/01/03 09:39:33;;;;;;;1.13;0.30;;;;;;;;;;4967289;28;20293;-65
2024/01/03 09:42:01;;;;;;;0.60;0.43;;;;;;;;;;4968662;28;20210;-66
2024/01/03 09:44:31;;;;;;;0.40;0.30;;;;;;;;;;4968725;28;20669;-66
2024/01/03 09:46:58;;;;;;;4.23;0.53;;;;;;;;;;4968386;28;20223;-67
2024/01/03 09:49:26;;;;;;;1.40;0.47;;;;;;;;;;4968914;28;20280;-67
2024/01/03 09:51:54;;;;;;;1.50;0.50;;;;;;;;;;4968062;28;20210;-64
2024/01/03 09:54:21;;;;;;;3.07;0.53;;;;;;;;;;4967876;28;20225;-63
2024/01/03 09:56:48;;;;;;;1.13;0.60;;;;;;;;;;4968166;28;20641;-69
2024/01/03 09:59:17;;;;;;;2.80;0.60;;;;;;;;;;4963972;28;20238;-64
2024/01/03 10:01:54;;;;;;;1.90;0.60;;;;;;;;;;4963857;28;20269;-64
2024/01/03 10:04:21;;;;;;;2.38;0.47;;;;;;;;;;4967930;28;20293;-65
2024/01/03 10:06:53;;;;;;;2.30;0.57;;;;;;;;;;4967283;28;20261;-64
2024/01/03 10:09:20;;;;;;;1.25;0.40;;;;;;;;;;4966727;28;20207;-64
2024/01/03 10:11:51;;;;;;;2.57;0.50;;;;;;;;;;4963464;28;20218;-64
2024/01/03 10:14:18;;;;;;;2.50;0.65;;;;;;;;;;4965752;28;20218;-66
2024/01/03 10:16:45;;;;;;;7.32;0.60;;;;;;;;;;4966122;28;20210;-66
2024/01/03 10:19:13;;;;;;;4.50;0.50;;;;;;;;;;4966704;28;20206;-67
2024/01/03 10:21:46;;;;;;;2.35;0.85;;;;;;;;;;4966153;28;20230;-66
2024/01/03 10:24:15;;;;;;;3.30;0.57;;;;;;;;;;4963344;28;20241;-66
2024/01/03 10:26:42;;;;;;;2.67;0.82;;;;;;;;;;4965438;28;20214;-67
2024/01/03 10:29:10;;;;;;;3.38;0.70;;;;;;;;;;4967303;28;20469;-65
2024/01/03 10:31:37;;;;;;;1.38;0.60;;;;;;;;;;4966158;28;20305;-67
2024/01/03 10:34:04;;;;;;;2.42;0.80;;;;;;;;;;4968186;28;20210;-66
2024/01/03 10:36:33;;;;;;;2.17;0.60;;;;;;;;;;4979230;28;20903;-67
2024/01/03 10:39:00;;;;;;;0.95;0.47;;;;;;;;;;4967633;28;20217;-64
2024/01/03 10:41:28;;;;;;;1.08;0.50;;;;;;;;;;4967117;28;20206;-68
2024/01/03 10:44:04;;;;;;;4.47;0.77;;;;;;;;;;4966489;28;20218;-67
2024/01/03 10:46:31;;;;;;;2.25;0.65;;;;;;;;;;4967803;28;20222;-67
2024/01/03 10:48:58;;;;;;;5.65;1.00;;;;;;;;;;4968534;28;20214;-68
2024/01/03 10:51:28;;;;;;;4.47;0.68;;;;;;;;;;4977812;28;20285;-69
2024/01/03 10:53:58;;;;;;;3.05;0.70;;;;;;;;;;4967431;28;20206;-67
2024/01/03 10:56:25;;;;;;;3.00;0.77;;;;;;;;;;4967706;28;20218;-67
2024/01/03 10:58:55;;;;;;;2.63;0.80;;;;;;;;;;4967177;28;20201;-67
2024/01/03 11:01:25;;;;;;;5.32;1.00;;;;;;;;;;4965083;28;20207;-67
2024/01/03 11:03:55;;;;;;;4.07;0.90;;;;;;;;;;4967035;28;20198;-67
2024/01/03 11:06:23;;;;;;;5.55;0.90;;;;;;;;;;4967453;28;20889;-68
2024/01/03 11:08:51;;;;;;;3.35;0.80;;;;;;;;;;4966993;28;20697;-67
2024/01/03 11:11:31;;;;;;;2.63;0.70;;;;;;;;;;4966913;28;20217;-66
2024/01/03 11:14:00;;;;;;;2.42;0.70;;;;;;;;;;4963974;28;20216;-67
2024/01/03 11:16:37;;;;;;;2.50;1.00;;;;;;;;;;4967108;28;20965;-67
2024/01/03 11:19:05;;;;;;;2.25;0.50;;;;;;;;;;4967765;28;20202;-67
2024/01/03 11:21:37;;;;;;;4.97;0.70;;;;;;;;;;4969942;28;20222;-67
2024/01/03 11:24:06;;;;;;;3.75;0.77;;;;;;;;;;4969939;28;20285;-68
2024/01/03 11:26:48;;;;;;;3.42;0.55;;;;;;;;;;4955326;28;20206;-67
2024/01/03 11:29:30;;;;;;;4.68;0.57;;;;;;;;;;4970243;28;20206;-67
2024/01/03 11:31:59;;;;;;;3.50;0.73;;;;;;;;;;4969507;28;20202;-66
2024/01/03 11:34:41;;;;;;;2.53;0.70;;;;;;;;;;4970124;28;20992;-68
2024/01/03 11:37:08;;;;;;;4.97;0.88;;;;;;;;;;4967138;28;20579;-63
2024/01/03 11:39:36;;;;;;;3.42;0.90;;;;;;;;;;4955172;28;20211;-68
2024/01/03 11:42:03;;;;;;;4.75;0.80;;;;;;;;;;4970214;28;20205;-66
2024/01/03 11:44:30;;;;;;;1.35;0.73;;;;;;;;;;4969874;28;20214;-66
2024/01/03 11:47:03;;;;;;;4.03;0.70;;;;;;;;;;4969716;28;20207;-66
2024/01/03 11:49:30;;;;;;;3.03;0.73;;;;;;;;;;4969532;28;20203;-66
2024/01/03 11:51:58;;;;;;;3.35;0.75;;;;;;;;;;4969791;28;20215;-68
2024/01/03 11:54:25;;;;;;;2.58;0.68;;;;;;;;;;4970110;28;20333;-66
2024/01/03 11:56:53;;;;;;;3.22;0.57;;;;;;;;;;4969662;28;20219;-67
2024/01/03 11:59:21;;;;;;;6.63;0.82;;;;;;;;;;4970131;28;20206;-66
2024/01/03 12:02:07;;;;;;;3.65;0.60;;;;;;;;;;4969299;28;20305;-69
2024/01/03 12:04:35;;;;;;;5.95;0.52;;;;;;;;;;4965058;28;20621;-67
2024/01/03 12:07:02;;;;;;;3.40;0.50;;;;;;;;;;4970558;28;20330;-66
2024/01/03 12:09:31;;;;;;;2.25;0.70;;;;;;;;;;4970071;28;20225;-67
2024/01/03 12:11:58;;;;;;;1.92;0.80;;;;;;;;;;4968955;28;20639;-66
2024/01/03 12:14:25;;;;;;;3.58;0.60;;;;;;;;;;4969473;28;20214;-67
2024/01/03 12:16:54;;;;;;;3.13;0.73;;;;;;;;;;4969711;28;20222;-66
2024/01/03 12:19:24;;;;;;;6.30;1.13;;;;;;;;;;4970070;28;20290;-66
2024/01/03 12:21:56;;;;;;;5.93;1.25;;;;;;;;;;4966413;28;20234;-67
2024/01/03 12:24:23;;;;;;;5.07;1.25;;;;;;;;;;4969290;28;20668;-66
2024/01/03 12:26:50;;;;;;;4.72;0.80;;;;;;;;;;4969648;28;20293;-65
2024/01/03 12:29:17;;;;;;;3.58;0.80;;;;;;;;;;4969741;28;20241;-66
2024/01/03 12:31:44;;;;;;;3.67;0.60;;;;;;;;;;4967034;28;20305;-66
2024/01/03 12:34:11;;;;;;;2.15;0.40;;;;;;;;;;4969638;28;20217;-66
2024/01/03 12:36:38;;;;;;;1.25;1.15;;;;;;;;;;4969911;28;20213;-66
2024/01/03 12:39:06;;;;;;;3.85;0.90;;;;;;;;;;4969398;28;20641;-67
2024/01/03 12:41:33;;;;;;;3.65;0.63;;;;;;;;;;4968709;28;20222;-67
2024/01/03 12:44:00;;;;;;;3.63;0.90;;;;;;;;;;4968978;28;20207;-67
2024/01/03 12:46:27;;;;;;;3.05;0.60;;;;;;;;;;4967572;28;20206;-67
2024/01/03 12:48:54;;;;;;;2.90;0.70;;;;;;;;;;4969102;28;20230;-67
2024/01/03 12:51:21;;;;;;;1.47;0.83;;;;;;;;;;4968017;28;20459;-67
2024/01/03 12:53:48;;;;;;;4.20;0.85;;;;;;;;;;4968986;28;20432;-67
2024/01/03 12:56:18;;;;;;;1.77;0.80;;;;;;;;;;4968641;28;20210;-67
2024/01/03 12:58:45;;;;;;;4.93;1.13;;;;;;;;;;4952200;28;20265;-69
2024/01/03 13:01:12;;;;;;;10.55;1.15;;;;;;;;;;4966315;28;20233;-70
2024/01/03 13:03:39;;;;;;;0.45;0.45;;;;;;;;;;4968715;28;20211;-65
2024/01/03 13:06:06;;;;;;;1.67;0.68;;;;;;;;;;4969222;28;20221;-68
2024/01/03 13:08:33;;;;;;;4.03;0.98;;;;;;;;;;4969050;28;20885;-68
2024/01/03 13:11:00;;;;;;;3.88;0.75;;;;;;;;;;4968607;28;20214;-68
2024/01/03 13:13:29;;;;;;;3.95;1.15;;;;;;;;;;4968477;28;20233;-65
2024/01/03 13:15:56;;;;;;;2.73;1.07;;;;;;;;;;4968625;28;20214;-68
2024/01/03 13:18:23;;;;;;;5.43;1.35;;;;;;;;;;4966683;28;20211;-65
2024/01/03 13:20:51;;;;;;;2.13;1.27;;;;;;;;;;4967663;28;20217;-66
2024/01/03 13:23:19;;;;;;;3.28;0.93;;;;;;;;;;4967629;28;20214;-66
2024/01/03 13:25:46;;;;;;;3.17;0.65;;;;;;;;;;4967628;28;20293;-66
2024/01/03 13:28:13;;;;;;;4.60;0.93;;;;;;;;;;4965649;28;20732;-66
2024/01/03 13:30:41;;;;;;;2.92;0.80;;;;;;;;;;4967923;28;20210;-67
2024/01/03 13:33:08;;;;;;;1.57;0.70;;;;;;;;;;4967662;28;20631;-65
2024/01/03 13:35:35;;;;;;;2.33;0.33;;;;;;;;;;4967317;28;20210;-66
2024/01/03 13:38:03;;;;;;;1.73;0.60;;;;;;;;;;4968310;28;20556;-66
2024/01/03 13:40:30;;;;;;;2.57;0.50;;;;;;;;;;4968010;28;20210;-66
2024/01/03 13:42:57;;;;;;;3.40;0.80;;;;;;;;;;4967318;28;20217;-67
2024/01/03 13:45:24;;;;;;;0.70;0.30;;;;;;;;;;4967983;28;20305;-67
2024/01/03 13:47:52;;;;;;;3.47;0.60;;;;;;;;;;4968155;28;20482;-66
2024/01/03 13:50:19;;;;;;;1.37;0.70;;;;;;;;;;4966781;28;20277;-67
2024/01/03 13:52:46;;;;;;;1.20;0.30;;;;;;;;;;4967871;28;20214;-66
2024/01/03 13:55:14;;;;;;;0.77;0.50;;;;;;;;;;4967622;28;20269;-66
2024/01/03 13:57:41;;;;;;;0.60;0.40;;;;;;;;;;4968350;28;20209;-66
2024/01/03 14:00:09;;;;;;;0.87;0.53;;;;;;;;;;4967641;28;20265;-66
2024/01/03 14:02:36;;;;;;;2.23;0.30;;;;;;;;;;4960818;28;20226;-67
2024/01/03 14:05:05;;;;;;;1.37;0.50;;;;;;;;;;4967661;28;20689;-67
2024/01/03 14:07:32;;;;;;;0.40;0.33;;;;;;;;;;4967764;28;20210;-67
2024/01/03 14:09:59;;;;;;;2.47;0.30;;;;;;;;;;4967246;28;20448;-67
2024/01/03 14:12:26;;;;;;;4.33;0.60;;;;;;;;;;4967292;28;20260;-66
2024/01/03 14:14:53;;;;;;;1.40;0.40;;;;;;;;;;4967245;28;20298;-66
2024/01/03 14:17:21;;;;;;;0.20;0.20;;;;;;;;;;4967763;28;20581;-67
2024/01/03 14:19:48;;;;;;;2.40;0.30;;;;;;;;;;4967660;28;20204;-66
2024/01/03 14:22:16;;;;;;;1.17;0.40;;;;;;;;;;4967419;28;20233;-66
2024/01/03 14:24:44;;;;;;;1.87;0.37;;;;;;;;;;4965454;28;20764;-67
2024/01/03 14:27:11;;;;;;;3.00;0.50;;;;;;;;;;4967630;28;20207;-67
2024/01/03 14:29:38;;;;;;;0.63;0.23;;;;;;;;;;4967529;28;20701;-66
2024/01/03 14:32:05;;;;;;;0.30;0.30;;;;;;;;;;4967132;28;20206;-67
2024/01/03 14:34:32;;;;;;;0.80;0.40;;;;;;;;;;4965963;28;20837;-66
2024/01/03 14:37:06;;;;;;;0.60;0.30;;;;;;;;;;4967871;28;20284;-66
2024/01/03 14:39:34;;;;;;;0.10;0.10;;;;;;;;;;4966007;28;20265;-66
2024/01/03 14:42:05;;;;;;;5.10;0.50;;;;;;;;;;4965564;28;20215;-67
2024/01/03 14:44:33;;;;;;;1.87;0.20;;;;;;;;;;4967222;28;20209;-66
2024/01/03 14:47:00;;;;;;;0.40;0.40;;;;;;;;;;4966808;28;20225;-67